Spar Draco — LAFO6 — position and weather

sailwx.info

Track history (hours):
 
Tides and Currents Weather Stations Pressure Air Temp Water Temp Dewpoint Dewpoint Depression Visibility Wind Speed Wind Dir Waves Ship Positions

Spar Draco

Last reported at 2016-Feb-10 15:26 UTC. Time now 2016-Feb-11 17:04 UTC.
Position N 23°35' E 119°55'.

Length 190 m; draft 12 m.

Type: Cargo ship. MMSI: 257799000.

Date/timePositionNaut miles runAvg speedWind from/ knotsBaromVisibWave heightAir tempDewpointWater temp
2016-Feb-10 15:26N 23°35' E 119°55'11 9.1
2016-Feb-10 14:11N 23°46' E 119°57'3710.1
2016-Feb-10 10:33N 24°19' E 120°13'1312.3
2016-Feb-10 09:29N 24°32' E 120°19'1112.3
2016-Feb-10 08:33N 24°42' E 120°24'40010.3
2016-Feb-08 17:31N 31°11' E 122°09'1010.0
2016-Feb-08 16:31N 31°15' E 121°58'9 8.8
2016-Feb-08 15:32N 31°17' E 121°49'9 8.7
2016-Feb-08 14:33N 31°21' E 121°40'5 4.6
2016-Feb-08 13:33N 31°23' E 121°35'8 8.4
2016-Feb-08 12:33N 31°28' E 121°27'1111.1
2016-Feb-08 11:33N 31°36' E 121°17'10 9.7
2016-Feb-08 10:33N 31°42' E 121°09'0 0.0
2016-Feb-08 09:20N 31°42' E 121°09'0 0.0
2016-Feb-08 08:32N 31°42' E 121°09'0 0.0
2016-Feb-08 04:32N 31°42' E 121°09'0 0.0
2016-Feb-08 03:32N 31°42' E 121°09'0 0.0
2016-Feb-08 00:32N 31°42' E 121°09'0 0.0
2016-Feb-07 23:32N 31°42' E 121°09'0 0.0
2016-Feb-07 22:32N 31°42' E 121°09'0 0.0
2016-Feb-07 21:32N 31°42' E 121°09'0 0.0
2016-Feb-07 20:32N 31°42' E 121°09'0 0.0
2016-Feb-07 19:32N 31°42' E 121°09'0 0.0
2016-Feb-07 18:26N 31°42' E 121°09'0 0.0
2016-Feb-07 17:26N 31°42' E 121°09'0 0.0
2016-Feb-07 16:32N 31°42' E 121°09'0 0.0
2016-Feb-07 15:32N 31°42' E 121°09'0 0.0
2016-Feb-07 14:32N 31°42' E 121°09'0 0.0
2016-Feb-07 13:32N 31°42' E 121°09'0 0.0
2016-Feb-07 12:32N 31°42' E 121°09'0 0.0
2016-Feb-07 11:23N 31°42' E 121°09'0 0.0
2016-Feb-07 10:32N 31°42' E 121°09'0 0.0
2016-Feb-07 09:32N 31°42' E 121°09'0 0.0
2016-Feb-07 08:26N 31°42' E 121°09'0 0.0
2016-Feb-07 07:32N 31°42' E 121°09'0 0.0
2016-Feb-07 06:32N 31°42' E 121°09'0 0.0
2016-Feb-07 05:32N 31°42' E 121°09'0 0.0
2016-Feb-07 03:08N 31°42' E 121°09'0 0.0
2016-Feb-07 02:08N 31°42' E 121°09'0 0.0
2016-Feb-07 01:32N 31°42' E 121°09'0 0.0
2016-Feb-07 00:26N 31°42' E 121°09'0 0.0
2016-Feb-06 22:26N 31°42' E 121°09'0 0.0
2016-Feb-06 21:20N 31°42' E 121°09'0 0.0
2016-Feb-06 20:32N 31°42' E 121°09'0 0.0
2016-Feb-06 19:29N 31°42' E 121°09'0 0.0
2016-Feb-06 18:32N 31°42' E 121°09'0 0.0
2016-Feb-06 17:32N 31°42' E 121°09'0 0.0
2016-Feb-06 16:32N 31°42' E 121°09'0 0.0
2016-Feb-06 15:27N 31°42' E 121°09'0 0.0
2016-Feb-06 14:30N 31°42' E 121°09'0 0.0
2016-Feb-06 13:30N 31°42' E 121°09'0 0.0
2016-Feb-06 12:33N 31°42' E 121°09'0 0.0
2016-Feb-06 11:21N 31°42' E 121°09'0 0.0
2016-Feb-06 10:33N 31°42' E 121°09'0 0.0
2016-Feb-06 09:24N 31°42' E 121°09'0 0.0
2016-Feb-06 08:30N 31°42' E 121°09'0 0.0
2016-Feb-06 07:24N 31°42' E 121°09'0 0.0
2016-Feb-06 06:33N 31°42' E 121°09'0 0.0
2016-Feb-06 05:30N 31°42' E 121°09'6 6.4
2016-Feb-06 04:33N 31°46' E 121°03'5 0.6
2016-Feb-05 20:06N 31°46' E 120°57'0 0.0
2016-Feb-05 15:27N 31°46' E 120°57'0 0.0
2016-Feb-05 10:07N 31°46' E 120°57'0 0.0
2016-Feb-05 09:25N 31°46' E 120°57'0 0.0
2016-Feb-05 08:31N 31°46' E 120°57'0 0.0
2016-Feb-05 03:15N 31°46' E 120°57'0 0.0
2016-Feb-04 18:31N 31°46' E 120°57'0 0.0
2016-Feb-04 15:29N 31°46' E 120°57'0 0.0
2016-Feb-04 13:20N 31°46' E 120°57'0 0.0
2016-Feb-03 10:11N 31°46' E 120°57'0 0.0
2016-Feb-02 09:08N 31°46' E 120°57'0 0.0
2016-Feb-01 09:06N 31°46' E 120°57'3 4.7
2016-Feb-01 08:31N 31°47' E 121°00'2 0.6
2016-Feb-01 05:23N 31°47' E 121°02'0 0.0
2016-Jan-31 23:26N 31°47' E 121°02'0 0.0
2016-Jan-31 20:32N 31°47' E 121°02'0 0.1
2016-Jan-31 19:19N 31°47' E 121°02'  
Track history (hours):
 
Tides and Currents Weather Stations Pressure Air Temp Water Temp Dewpoint Dewpoint Depression Visibility Wind Speed Wind Dir Waves Ship Positions

Spar Draco

Last reported at 2016-Feb-10 15:26 UTC. Time now 2016-Feb-11 17:04 UTC.
Position N 23°35' E 119°55'.

Length 190 m; draft 12 m.

Type: Cargo ship. MMSI: 257799000.

Date/timePositionNaut miles runAvg speedWind from/ knotsBaromVisibWave heightAir tempDewpointWater temp
2016-Feb-10 15:26N 23°35' E 119°55'11 9.1
2016-Feb-10 14:11N 23°46' E 119°57'3710.1
2016-Feb-10 10:33N 24°19' E 120°13'1312.3
2016-Feb-10 09:29N 24°32' E 120°19'1112.3
2016-Feb-10 08:33N 24°42' E 120°24'40010.3
2016-Feb-08 17:31N 31°11' E 122°09'1010.0
2016-Feb-08 16:31N 31°15' E 121°58'9 8.8
2016-Feb-08 15:32N 31°17' E 121°49'9 8.7
2016-Feb-08 14:33N 31°21' E 121°40'5 4.6
2016-Feb-08 13:33N 31°23' E 121°35'8 8.4
2016-Feb-08 12:33N 31°28' E 121°27'1111.1
2016-Feb-08 11:33N 31°36' E 121°17'10 9.7
2016-Feb-08 10:33N 31°42' E 121°09'0 0.0
2016-Feb-08 09:20N 31°42' E 121°09'0 0.0
2016-Feb-08 08:32N 31°42' E 121°09'0 0.0
2016-Feb-08 04:32N 31°42' E 121°09'0 0.0
2016-Feb-08 03:32N 31°42' E 121°09'0 0.0
2016-Feb-08 00:32N 31°42' E 121°09'0 0.0
2016-Feb-07 23:32N 31°42' E 121°09'0 0.0
2016-Feb-07 22:32N 31°42' E 121°09'0 0.0
2016-Feb-07 21:32N 31°42' E 121°09'0 0.0
2016-Feb-07 20:32N 31°42' E 121°09'0 0.0
2016-Feb-07 19:32N 31°42' E 121°09'0 0.0
2016-Feb-07 18:26N 31°42' E 121°09'0 0.0
2016-Feb-07 17:26N 31°42' E 121°09'0 0.0
2016-Feb-07 16:32N 31°42' E 121°09'0 0.0
2016-Feb-07 15:32N 31°42' E 121°09'0 0.0
2016-Feb-07 14:32N 31°42' E 121°09'0 0.0
2016-Feb-07 13:32N 31°42' E 121°09'0 0.0
2016-Feb-07 12:32N 31°42' E 121°09'0 0.0
2016-Feb-07 11:23N 31°42' E 121°09'0 0.0
2016-Feb-07 10:32N 31°42' E 121°09'0 0.0
2016-Feb-07 09:32N 31°42' E 121°09'0 0.0
2016-Feb-07 08:26N 31°42' E 121°09'0 0.0
2016-Feb-07 07:32N 31°42' E 121°09'0 0.0
2016-Feb-07 06:32N 31°42' E 121°09'0 0.0
2016-Feb-07 05:32N 31°42' E 121°09'0 0.0
2016-Feb-07 03:08N 31°42' E 121°09'0 0.0
2016-Feb-07 02:08N 31°42' E 121°09'0 0.0
2016-Feb-07 01:32N 31°42' E 121°09'0 0.0
2016-Feb-07 00:26N 31°42' E 121°09'0 0.0
2016-Feb-06 22:26N 31°42' E 121°09'0 0.0
2016-Feb-06 21:20N 31°42' E 121°09'0 0.0
2016-Feb-06 20:32N 31°42' E 121°09'0 0.0
2016-Feb-06 19:29N 31°42' E 121°09'0 0.0
2016-Feb-06 18:32N 31°42' E 121°09'0 0.0
2016-Feb-06 17:32N 31°42' E 121°09'0 0.0
2016-Feb-06 16:32N 31°42' E 121°09'0 0.0
2016-Feb-06 15:27N 31°42' E 121°09'0 0.0
2016-Feb-06 14:30N 31°42' E 121°09'0 0.0
2016-Feb-06 13:30N 31°42' E 121°09'0 0.0
2016-Feb-06 12:33N 31°42' E 121°09'0 0.0
2016-Feb-06 11:21N 31°42' E 121°09'0 0.0
2016-Feb-06 10:33N 31°42' E 121°09'0 0.0
2016-Feb-06 09:24N 31°42' E 121°09'0 0.0
2016-Feb-06 08:30N 31°42' E 121°09'0 0.0
2016-Feb-06 07:24N 31°42' E 121°09'0 0.0
2016-Feb-06 06:33N 31°42' E 121°09'0 0.0
2016-Feb-06 05:30N 31°42' E 121°09'6 6.4
2016-Feb-06 04:33N 31°46' E 121°03'5 0.6
2016-Feb-05 20:06N 31°46' E 120°57'0 0.0
2016-Feb-05 15:27N 31°46' E 120°57'0 0.0
2016-Feb-05 10:07N 31°46' E 120°57'0 0.0
2016-Feb-05 09:25N 31°46' E 120°57'0 0.0
2016-Feb-05 08:31N 31°46' E 120°57'0 0.0
2016-Feb-05 03:15N 31°46' E 120°57'0 0.0
2016-Feb-04 18:31N 31°46' E 120°57'0 0.0
2016-Feb-04 15:29N 31°46' E 120°57'0 0.0
2016-Feb-04 13:20N 31°46' E 120°57'0 0.0
2016-Feb-03 10:11N 31°46' E 120°57'0 0.0
2016-Feb-02 09:08N 31°46' E 120°57'0 0.0
2016-Feb-01 09:06N 31°46' E 120°57'3 4.7
2016-Feb-01 08:31N 31°47' E 121°00'2 0.6
2016-Feb-01 05:23N 31°47' E 121°02'0 0.0
2016-Jan-31 23:26N 31°47' E 121°02'0 0.0
2016-Jan-31 20:32N 31°47' E 121°02'0 0.1
2016-Jan-31 19:19N 31°47' E 121°02'  

Dump ship's entire track history